Time;durP1;ratioP1;P1;durP2;ratioP2;P2;SDS_P1;SDS_P2;PMS_P1;PMS_P2;Temp;Humidity;BMP_temperature;BMP_pressure;BME280_temperature;BME280_humidity;BME280_pressure;Samples;Min_cycle;Max_cycle;Signal;HPM_P1;HPM_P2
2022/02/28 00:00:11;;;;;;;47.57;17.80;;;1.10;99.90;;;;;;4099879;28;20473;-77
2022/02/28 00:02:13;;;;;;;48.43;17.90;;;1.10;99.90;;;;;;4088481;29;20490;-76
2022/02/28 00:04:15;;;;;;;49.30;17.50;;;1.10;99.90;;;;;;4084365;29;20520;-76
2022/02/28 00:06:16;;;;;;;48.17;18.93;;;1.10;99.90;;;;;;4114132;28;20487;-76
2022/02/28 00:08:18;;;;;;;47.47;18.13;;;1.10;99.90;;;;;;4116357;28;20494;-76
2022/02/28 00:10:20;;;;;;;45.57;17.43;;;1.10;99.90;;;;;;4104280;28;20525;-75
2022/02/28 00:12:22;;;;;;;47.47;17.90;;;1.10;99.90;;;;;;4095401;28;20945;-76
2022/02/28 00:14:23;;;;;;;47.57;17.43;;;1.20;99.90;;;;;;4083239;29;20520;-76
2022/02/28 00:16:26;;;;;;;44.93;18.63;;;1.20;99.90;;;;;;4102079;28;20476;-76
2022/02/28 00:18:28;;;;;;;47.40;18.03;;;1.20;99.90;;;;;;4113007;28;20455;-78
2022/02/28 00:20:30;;;;;;;51.73;19.23;;;1.20;99.90;;;;;;4115217;28;21012;-76
2022/02/28 00:22:32;;;;;;;49.57;19.27;;;1.20;99.90;;;;;;4100706;28;20749;-76
2022/02/28 00:24:34;;;;;;;46.40;16.87;;;1.20;99.90;;;;;;4099310;29;20563;-76
2022/02/28 00:26:36;;;;;;;46.73;17.83;;;1.20;99.90;;;;;;4093908;29;20485;-76
2022/02/28 00:28:38;;;;;;;47.17;17.77;;;1.20;99.90;;;;;;4083476;29;20556;-76
2022/02/28 00:30:40;;;;;;;47.87;19.03;;;1.20;99.90;;;;;;4083263;29;20469;-76
2022/02/28 00:32:43;;;;;;;48.47;18.47;;;1.20;99.90;;;;;;4083329;29;20952;-76
2022/02/28 00:34:45;;;;;;;46.63;17.97;;;1.20;99.90;;;;;;4090512;28;20514;-76
2022/02/28 00:36:48;;;;;;;49.53;19.13;;;1.20;99.90;;;;;;4099038;28;20463;-77
2022/02/28 00:38:53;;;;;;;45.43;17.73;;;1.70;99.90;;;;;;4099464;28;20467;-76
2022/02/28 00:40:55;;;;;;;49.13;18.60;;;1.20;99.90;;;;;;4100195;28;20476;-77
2022/02/28 00:42:57;;;;;;;46.77;18.30;;;1.20;99.90;;;;;;4099837;28;20765;-75
2022/02/28 00:44:58;;;;;;;44.27;16.57;;;1.20;99.90;;;;;;4098424;28;20592;-76
2022/02/28 00:47:00;;;;;;;44.03;17.23;;;1.20;99.90;;;;;;4099363;28;20468;-76
2022/02/28 00:49:04;;;;;;;46.50;17.37;;;1.70;99.90;;;;;;4099104;28;20476;-75
2022/02/28 00:51:05;;;;;;;52.97;19.33;;;1.20;99.90;;;;;;4097268;28;20486;-75
2022/02/28 00:53:07;;;;;;;43.77;16.83;;;1.30;99.90;;;;;;4103197;28;20504;-78
2022/02/28 00:55:11;;;;;;;48.27;17.60;;;1.20;99.90;;;;;;4099188;28;20535;-75
2022/02/28 00:57:13;;;;;;;46.43;19.03;;;1.30;99.90;;;;;;4099986;28;20461;-75
2022/02/28 00:59:15;;;;;;;45.10;17.70;;;1.30;99.90;;;;;;4098226;28;20476;-75
2022/02/28 01:01:16;;;;;;;51.27;18.03;;;1.20;99.90;;;;;;4098372;28;20881;-76
2022/02/28 01:03:18;;;;;;;44.90;17.77;;;1.30;99.90;;;;;;4083071;29;20570;-76
2022/02/28 01:05:22;;;;;;;52.77;19.20;;;1.20;99.90;;;;;;4096546;28;20497;-76
2022/02/28 01:07:23;;;;;;;49.73;17.87;;;1.20;99.90;;;;;;4099315;28;20590;-78
2022/02/28 01:09:25;;;;;;;52.17;19.07;;;1.20;99.90;;;;;;4097918;29;20537;-76
2022/02/28 01:11:27;;;;;;;47.00;18.13;;;1.20;99.90;;;;;;4098594;29;20473;-75
2022/02/28 01:13:28;;;;;;;49.57;18.70;;;1.20;99.90;;;;;;4097246;28;20555;-77
2022/02/28 01:15:30;;;;;;;47.70;17.13;;;1.20;99.90;;;;;;4098845;28;20479;-75
2022/02/28 01:17:32;;;;;;;56.17;19.53;;;1.20;99.90;;;;;;4098007;28;20479;-77
2022/02/28 01:19:35;;;;;;;45.93;17.47;;;1.20;99.90;;;;;;4098024;28;20962;-78
2022/02/28 01:21:38;;;;;;;48.67;18.33;;;1.20;99.90;;;;;;4099300;29;20903;-75
2022/02/28 01:23:40;;;;;;;44.87;17.50;;;1.20;99.90;;;;;;4091952;29;20455;-76
2022/02/28 01:25:41;;;;;;;48.77;18.30;;;1.20;99.90;;;;;;4082287;29;20571;-76
2022/02/28 01:27:43;;;;;;;43.10;17.03;;;1.20;99.90;;;;;;4095631;29;20927;-75
2022/02/28 01:29:45;;;;;;;48.73;17.70;;;1.20;99.90;;;;;;4098815;28;20483;-76
2022/02/28 01:31:47;;;;;;;48.90;18.50;;;1.20;99.90;;;;;;4100246;28;20876;-76
2022/02/28 01:33:48;;;;;;;46.07;17.73;;;1.20;99.90;;;;;;4093196;28;20519;-76
2022/02/28 01:35:50;;;;;;;49.83;18.83;;;1.20;99.90;;;;;;4095816;28;20723;-75
2022/02/28 01:37:53;;;;;;;50.87;17.63;;;1.20;99.90;;;;;;4099168;28;21031;-75
2022/02/28 01:39:55;;;;;;;50.13;19.30;;;1.30;99.90;;;;;;4099368;28;20464;-75
2022/02/28 01:41:57;;;;;;;49.27;18.03;;;1.20;99.90;;;;;;4098899;29;20460;-77
2022/02/28 01:43:58;;;;;;;49.77;17.73;;;1.20;99.90;;;;;;4098282;28;20467;-75
2022/02/28 01:46:00;;;;;;;48.80;18.30;;;1.20;99.90;;;;;;4098845;28;20550;-75
2022/02/28 01:48:02;;;;;;;47.57;18.30;;;1.20;99.90;;;;;;4105971;28;20488;-75
2022/02/28 01:50:05;;;;;;;51.30;18.50;;;1.20;99.90;;;;;;4115139;28;20455;-75
2022/02/28 01:52:07;;;;;;;50.83;18.97;;;1.20;99.90;;;;;;4091966;28;20479;-75
2022/02/28 01:54:10;;;;;;;47.07;17.83;;;1.20;99.90;;;;;;4106791;28;20525;-77
2022/02/28 01:56:12;;;;;;;51.23;18.43;;;1.20;99.90;;;;;;4097966;28;20487;-75
2022/02/28 01:58:14;;;;;;;46.80;17.53;;;1.20;99.90;;;;;;4100721;29;20876;-75
2022/02/28 02:00:17;;;;;;;45.00;17.37;;;1.20;99.90;;;;;;4101214;29;20523;-75
2022/02/28 02:02:19;;;;;;;41.47;16.87;;;1.20;99.90;;;;;;4100942;28;20569;-77
2022/02/28 02:04:21;;;;;;;51.80;18.13;;;1.20;99.90;;;;;;4102331;28;20464;-77
2022/02/28 02:06:23;;;;;;;40.00;17.33;;;1.20;99.90;;;;;;4099643;28;20750;-75
2022/02/28 02:08:26;;;;;;;49.13;18.87;;;1.20;99.90;;;;;;4101638;28;20527;-75
2022/02/28 02:10:29;;;;;;;42.80;18.60;;;1.20;99.90;;;;;;4102004;28;20567;-75
2022/02/28 02:12:31;;;;;;;46.73;18.03;;;1.20;99.90;;;;;;4110688;28;20469;-75
2022/02/28 02:14:33;;;;;;;50.37;18.00;;;1.20;99.90;;;;;;4092863;29;20485;-75
2022/02/28 02:16:35;;;;;;;44.43;16.97;;;1.20;99.90;;;;;;4090426;28;20969;-75
2022/02/28 02:18:37;;;;;;;50.77;18.87;;;1.20;99.90;;;;;;4104294;28;20456;-75
2022/02/28 02:20:40;;;;;;;51.33;18.70;;;1.20;99.90;;;;;;4104326;28;20888;-75
2022/02/28 02:22:55;;;;;;;50.87;18.40;;;1.20;99.90;;;;;;4096517;28;20480;-76
2022/02/28 02:24:57;;;;;;;48.90;18.73;;;1.20;99.90;;;;;;4101615;28;20498;-75
2022/02/28 02:26:58;;;;;;;53.13;18.67;;;1.20;99.90;;;;;;4101829;28;20473;-75
2022/02/28 02:29:00;;;;;;;49.40;19.00;;;1.20;99.90;;;;;;4101829;28;20999;-75
2022/02/28 02:31:04;;;;;;;47.73;17.37;;;1.20;99.90;;;;;;4100154;28;20460;-76
2022/02/28 02:33:05;;;;;;;49.23;19.23;;;1.20;99.90;;;;;;4101901;28;21013;-75
2022/02/28 02:35:08;;;;;;;54.03;18.40;;;1.20;99.90;;;;;;4101473;28;20996;-77
2022/02/28 02:37:11;;;;;;;50.60;18.90;;;1.30;99.90;;;;;;4101736;28;20547;-76
2022/02/28 02:39:13;;;;;;;50.23;19.67;;;1.30;99.90;;;;;;4101588;28;20464;-75
2022/02/28 02:41:15;;;;;;;54.10;19.53;;;1.30;99.90;;;;;;4101346;28;20535;-75
2022/02/28 02:43:18;;;;;;;49.17;19.00;;;1.30;99.90;;;;;;4100648;29;20471;-75
2022/02/28 02:45:19;;;;;;;57.73;21.57;;;1.30;99.90;;;;;;4086781;29;21101;-75
2022/02/28 02:47:21;;;;;;;60.27;21.60;;;1.30;99.90;;;;;;4095398;29;20480;-76
2022/02/28 02:49:23;;;;;;;63.93;22.93;;;1.30;99.90;;;;;;4109069;28;20492;-76
2022/02/28 02:51:24;;;;;;;63.03;23.47;;;1.30;99.90;;;;;;4099482;28;20925;-77
2022/02/28 02:53:27;;;;;;;72.90;24.23;;;1.30;99.90;;;;;;4100836;28;20464;-75
2022/02/28 02:55:29;;;;;;;67.03;24.17;;;1.30;99.90;;;;;;4098471;29;20496;-76
2022/02/28 02:57:31;;;;;;;65.47;23.00;;;1.30;99.90;;;;;;4088318;29;20461;-75
2022/02/28 02:59:33;;;;;;;73.87;24.93;;;1.30;99.90;;;;;;4102317;28;20523;-75
2022/02/28 03:01:35;;;;;;;71.13;24.00;;;1.30;99.90;;;;;;4108922;28;21021;-78
2022/02/28 03:03:37;;;;;;;68.13;24.43;;;1.30;99.90;;;;;;4100474;29;20467;-78
2022/02/28 03:05:39;;;;;;;65.23;24.33;;;1.30;99.90;;;;;;4110138;28;20496;-75
2022/02/28 03:07:40;;;;;;;67.10;24.23;;;1.30;99.90;;;;;;4102394;28;20487;-75
2022/02/28 03:09:44;;;;;;;78.80;25.67;;;1.30;99.90;;;;;;4107298;28;20449;-75
2022/02/28 03:11:47;;;;;;;71.50;25.30;;;1.30;99.90;;;;;;4095345;29;20911;-75
2022/02/28 03:13:49;;;;;;;74.57;25.07;;;1.30;99.90;;;;;;4083926;29;20900;-75
2022/02/28 03:15:50;;;;;;;68.10;24.40;;;1.30;99.90;;;;;;4084794;29;20537;-75
2022/02/28 03:17:52;;;;;;;63.13;24.20;;;1.30;99.90;;;;;;4095678;28;20488;-75
2022/02/28 03:19:54;;;;;;;60.93;22.20;;;1.30;99.90;;;;;;4100562;28;20491;-76
2022/02/28 03:21:55;;;;;;;72.17;25.57;;;1.30;99.90;;;;;;4095829;28;20522;-75
2022/02/28 03:23:57;;;;;;;70.00;24.40;;;1.30;99.90;;;;;;4099989;28;20606;-78
2022/02/28 03:26:01;;;;;;;61.33;24.37;;;1.30;99.90;;;;;;4100777;29;20708;-75
2022/02/28 03:28:02;;;;;;;60.97;22.40;;;1.20;99.90;;;;;;4100291;29;20459;-77
2022/02/28 03:30:05;;;;;;;57.70;21.33;;;1.20;99.90;;;;;;4099852;29;20484;-77
2022/02/28 03:32:08;;;;;;;56.93;20.77;;;1.20;99.90;;;;;;4099880;29;20471;-75
2022/02/28 03:34:10;;;;;;;49.83;19.83;;;1.20;99.90;;;;;;4099804;28;20456;-77
2022/02/28 03:36:12;;;;;;;52.90;20.10;;;1.20;99.90;;;;;;4100723;29;20558;-77
2022/02/28 03:38:13;;;;;;;55.50;19.43;;;1.20;99.90;;;;;;4102931;28;20923;-76
2022/02/28 03:40:15;;;;;;;49.30;18.00;;;1.10;99.90;;;;;;4104289;28;20893;-76
2022/02/28 03:42:18;;;;;;;49.67;19.63;;;1.10;99.90;;;;;;4099194;28;20479;-76
2022/02/28 03:44:20;;;;;;;48.63;19.37;;;1.20;99.90;;;;;;4099328;28;20904;-77
2022/02/28 03:46:22;;;;;;;50.23;18.77;;;1.10;99.90;;;;;;4099518;28;20483;-78
2022/02/28 03:48:23;;;;;;;55.83;20.93;;;1.10;99.90;;;;;;4094127;29;20496;-75
2022/02/28 03:50:25;;;;;;;50.70;19.07;;;1.10;99.90;;;;;;4097038;29;20473;-75
2022/02/28 03:52:27;;;;;;;52.57;19.80;;;1.10;99.90;;;;;;4102049;28;20464;-76
2022/02/28 03:54:29;;;;;;;52.70;19.67;;;1.00;99.90;;;;;;4100046;28;20464;-76
2022/02/28 03:56:30;;;;;;;50.53;19.23;;;1.00;99.90;;;;;;4096657;28;20471;-77
2022/02/28 03:58:37;;;;;;;53.47;20.17;;;1.00;99.90;;;;;;4100528;28;20592;-75
2022/02/28 04:00:39;;;;;;;54.73;20.43;;;1.00;99.90;;;;;;4099802;29;20563;-76
2022/02/28 04:02:41;;;;;;;54.63;21.13;;;1.00;99.90;;;;;;4099816;28;20905;-75
2022/02/28 04:04:43;;;;;;;59.17;21.57;;;1.00;99.90;;;;;;4101523;28;20469;-75
2022/02/28 04:06:47;;;;;;;56.37;20.60;;;0.90;99.90;;;;;;4106712;28;20840;-75
2022/02/28 04:08:49;;;;;;;55.97;19.90;;;0.90;99.90;;;;;;4099416;28;20523;-75
2022/02/28 04:10:54;;;;;;;58.50;20.47;;;0.90;99.90;;;;;;4115969;28;20474;-75
2022/02/28 04:12:55;;;;;;;55.90;20.63;;;0.90;99.90;;;;;;4116164;28;20968;-75
2022/02/28 04:15:01;;;;;;;51.67;19.93;;;0.90;99.90;;;;;;4103981;28;20494;-77
2022/02/28 04:17:04;;;;;;;54.03;19.87;;;0.90;99.90;;;;;;4099764;28;20482;-76
2022/02/28 04:19:06;;;;;;;55.40;20.60;;;0.90;99.90;;;;;;4099090;29;20499;-76
2022/02/28 04:21:08;;;;;;;51.27;20.57;;;0.90;99.90;;;;;;4099642;28;20524;-77
2022/02/28 04:23:10;;;;;;;56.47;19.90;;;0.80;99.90;;;;;;4095063;28;20893;-76
2022/02/28 04:25:12;;;;;;;53.43;20.00;;;0.80;99.90;;;;;;4100966;28;20517;-77
2022/02/28 04:27:14;;;;;;;55.57;20.17;;;0.90;99.90;;;;;;4103774;28;20824;-78
2022/02/28 04:29:16;;;;;;;53.50;20.00;;;0.80;99.90;;;;;;4102514;28;20497;-78
2022/02/28 04:31:19;;;;;;;59.53;20.23;;;0.90;99.90;;;;;;4101041;28;20461;-78
2022/02/28 04:33:20;;;;;;;49.87;18.70;;;0.80;99.90;;;;;;4115851;28;20463;-77
2022/02/28 04:35:22;;;;;;;50.87;18.97;;;0.80;99.90;;;;;;4115220;28;20926;-79
2022/02/28 04:37:24;;;;;;;48.47;18.60;;;0.80;99.90;;;;;;4104776;28;20891;-78
2022/02/28 04:39:26;;;;;;;53.20;19.43;;;0.50;99.90;;;;;;4111229;28;20443;-79
2022/02/28 04:41:28;;;;;;;51.53;18.90;;;0.80;99.90;;;;;;4091488;29;20463;-78
2022/02/28 04:43:30;;;;;;;49.80;18.43;;;0.80;99.90;;;;;;4092926;28;20486;-77
2022/02/28 04:45:31;;;;;;;44.57;18.53;;;0.70;99.90;;;;;;4109761;28;20491;-79
2022/02/28 04:47:35;;;;;;;51.83;19.33;;;0.80;99.90;;;;;;4097362;28;20511;-79
2022/02/28 04:49:36;;;;;;;49.33;18.63;;;0.80;99.90;;;;;;4088512;29;20499;-79
2022/02/28 04:51:38;;;;;;;48.23;18.47;;;0.70;99.90;;;;;;4093816;28;20551;-78
2022/02/28 04:53:40;;;;;;;58.77;19.40;;;0.70;99.90;;;;;;4091312;29;20457;-77
2022/02/28 04:55:42;;;;;;;51.83;18.33;;;0.70;99.90;;;;;;4116480;28;20491;-78
2022/02/28 04:57:45;;;;;;;53.20;18.30;;;0.70;99.90;;;;;;4119413;28;20461;-79
2022/02/28 04:59:47;;;;;;;53.30;19.07;;;0.70;99.90;;;;;;4093621;28;20458;-78
2022/02/28 05:01:49;;;;;;;61.10;21.03;;;0.70;99.90;;;;;;4104083;28;20570;-78
2022/02/28 05:03:52;;;;;;;50.77;19.13;;;0.70;99.90;;;;;;4104668;29;20474;-78
2022/02/28 05:05:53;;;;;;;50.13;18.70;;;0.60;99.90;;;;;;4104310;29;20475;-78
2022/02/28 05:07:55;;;;;;;53.27;20.93;;;0.60;99.90;;;;;;4114565;29;20512;-76
2022/02/28 05:09:57;;;;;;;50.07;18.57;;;0.60;99.90;;;;;;4117725;29;20498;-76
2022/02/28 05:11:59;;;;;;;48.00;19.00;;;0.60;99.90;;;;;;4117575;28;20466;-78
2022/02/28 05:14:00;;;;;;;54.03;18.97;;;0.60;99.90;;;;;;4116457;28;20951;-78
2022/02/28 05:16:02;;;;;;;50.47;18.90;;;0.60;99.90;;;;;;4114317;28;20475;-78
2022/02/28 05:18:04;;;;;;;48.83;17.97;;;0.60;99.90;;;;;;4094699;28;20480;-79
2022/02/28 05:20:08;;;;;;;55.27;18.80;;;0.60;99.90;;;;;;4097109;28;20546;-78
2022/02/28 05:22:11;;;;;;;57.47;19.40;;;0.60;99.90;;;;;;4102732;28;20455;-79
2022/02/28 05:24:12;;;;;;;56.33;20.13;;;0.60;99.90;;;;;;4103765;28;20464;-79
2022/02/28 05:26:14;;;;;;;50.03;18.23;;;0.60;99.90;;;;;;4101506;28;21738;-78
2022/02/28 05:28:16;;;;;;;47.83;18.47;;;0.60;99.90;;;;;;4105305;28;20474;-78
2022/02/28 05:30:17;;;;;;;53.10;19.17;;;0.60;99.90;;;;;;4111596;29;20506;-77
2022/02/28 05:32:19;;;;;;;52.33;19.43;;;0.60;99.90;;;;;;4097782;29;20475;-77
2022/02/28 05:34:24;;;;;;;53.33;19.63;;;0.60;99.90;;;;;;4097598;28;20919;-77
2022/02/28 05:36:27;;;;;;;50.63;19.37;;;0.60;99.90;;;;;;4111886;28;20474;-78
2022/02/28 05:38:28;;;;;;;57.07;19.97;;;0.60;99.90;;;;;;4106440;28;20473;-78
2022/02/28 05:40:30;;;;;;;54.77;20.57;;;0.60;99.90;;;;;;4104086;28;20446;-78
2022/02/28 05:42:32;;;;;;;55.07;20.33;;;0.60;99.90;;;;;;4098980;29;21019;-76
2022/02/28 05:44:34;;;;;;;53.03;20.10;;;0.60;99.90;;;;;;4097904;29;20480;-76
2022/02/28 05:46:36;;;;;;;57.00;20.80;;;0.60;99.90;;;;;;4106139;28;20480;-77
2022/02/28 05:48:38;;;;;;;58.47;21.00;;;0.60;99.90;;;;;;4098306;29;20466;-78
2022/02/28 05:50:39;;;;;;;56.07;20.33;;;0.60;99.90;;;;;;4097855;28;20498;-78
2022/02/28 05:52:45;;;;;;;55.37;19.27;;;0.60;99.90;;;;;;4097462;29;20532;-76
2022/02/28 05:54:47;;;;;;;54.83;20.50;;;0.60;99.90;;;;;;4101064;28;20502;-76
2022/02/28 05:56:49;;;;;;;57.10;20.07;;;0.50;99.90;;;;;;4092338;28;20880;-76
2022/02/28 05:58:50;;;;;;;59.10;21.43;;;0.50;99.90;;;;;;4091051;29;20519;-76
2022/02/28 06:00:52;;;;;;;53.90;20.77;;;0.50;99.90;;;;;;4098696;28;20487;-77
2022/02/28 06:02:54;;;;;;;60.87;21.13;;;0.50;99.90;;;;;;4099169;28;20458;-79
2022/02/28 06:04:57;;;;;;;55.20;20.70;;;0.50;99.90;;;;;;4096514;28;20563;-77
2022/02/28 06:06:58;;;;;;;55.17;20.70;;;0.50;99.90;;;;;;4102791;28;20848;-77
2022/02/28 06:09:03;;;;;;;53.37;20.83;;;0.50;99.90;;;;;;4105200;28;20870;-80
2022/02/28 06:11:05;;;;;;;50.80;19.47;;;0.50;99.90;;;;;;4100195;28;20956;-77
2022/02/28 06:13:06;;;;;;;52.93;20.27;;;0.50;99.90;;;;;;4102555;28;20477;-80
2022/02/28 06:15:10;;;;;;;56.03;19.63;;;0.60;99.90;;;;;;4100197;28;20996;-79
2022/02/28 06:17:12;;;;;;;50.20;19.37;;;0.60;99.90;;;;;;4098728;28;20546;-77
2022/02/28 06:19:13;;;;;;;51.83;18.90;;;0.60;99.90;;;;;;4083855;29;20977;-77
2022/02/28 06:21:15;;;;;;;52.83;19.67;;;0.50;99.90;;;;;;4085523;29;20600;-79
2022/02/28 06:23:19;;;;;;;58.23;20.83;;;0.50;99.90;;;;;;4101623;28;20471;-80
2022/02/28 06:25:22;;;;;;;54.97;20.97;;;0.50;99.90;;;;;;4103532;28;20511;-80
2022/02/28 06:27:25;;;;;;;51.60;20.03;;;0.50;99.90;;;;;;4099498;29;20482;-80
2022/02/28 06:29:26;;;;;;;53.90;19.97;;;0.60;99.90;;;;;;4095564;29;20492;-80
2022/02/28 06:31:28;;;;;;;54.23;19.67;;;0.60;99.90;;;;;;4103834;28;20462;-80
2022/02/28 06:33:30;;;;;;;58.87;20.93;;;0.60;99.90;;;;;;4102344;29;20464;-80
2022/02/28 06:35:32;;;;;;;56.00;20.00;;;0.60;99.90;;;;;;4097791;28;20489;-79
2022/02/28 06:37:34;;;;;;;57.93;20.50;;;0.60;99.90;;;;;;4098306;28;20884;-77
2022/02/28 06:39:37;;;;;;;53.83;19.80;;;0.60;99.90;;;;;;4100654;28;20457;-77
2022/02/28 06:41:40;;;;;;;55.10;19.70;;;0.60;99.90;;;;;;4097716;28;20473;-77
2022/02/28 06:43:42;;;;;;;50.47;19.50;;;0.60;99.90;;;;;;4097952;28;20795;-77
2022/02/28 06:45:44;;;;;;;52.57;20.27;;;0.60;99.90;;;;;;4102733;28;20482;-77
2022/02/28 06:47:46;;;;;;;52.30;19.80;;;0.60;99.90;;;;;;4101558;28;20558;-76
2022/02/28 06:49:48;;;;;;;51.07;18.47;;;0.60;99.90;;;;;;4100756;28;20854;-76
2022/02/28 06:51:52;;;;;;;55.77;19.00;;;0.60;99.90;;;;;;4101618;28;20470;-77
2022/02/28 06:53:53;;;;;;;53.50;18.33;;;0.60;99.90;;;;;;4106648;28;20473;-77
2022/02/28 06:55:56;;;;;;;47.27;17.50;;;0.60;99.90;;;;;;4099741;28;20851;-76
2022/02/28 06:57:59;;;;;;;44.03;17.03;;;0.60;99.90;;;;;;4102248;28;20474;-77
2022/02/28 07:00:01;;;;;;;54.57;18.27;;;0.60;99.90;;;;;;4102661;28;20450;-78
2022/02/28 07:02:03;;;;;;;50.47;18.23;;;0.60;99.90;;;;;;4102063;29;20520;-77
2022/02/28 07:04:04;;;;;;;50.93;17.03;;;0.60;99.90;;;;;;4100646;29;20474;-77
2022/02/28 07:06:06;;;;;;;45.93;17.40;;;0.60;99.90;;;;;;4100135;29;20577;-77
2022/02/28 07:08:08;;;;;;;50.03;17.43;;;0.60;99.90;;;;;;4094658;28;20472;-77
2022/02/28 07:10:12;;;;;;;44.77;16.20;;;0.60;99.90;;;;;;4094301;28;20524;-77
2022/02/28 07:12:14;;;;;;;48.93;17.57;;;0.60;99.90;;;;;;4092066;28;20455;-76
2022/02/28 07:14:17;;;;;;;46.97;16.67;;;0.60;99.90;;;;;;4097705;28;20522;-76
2022/02/28 07:16:19;;;;;;;48.03;18.57;;;0.70;99.90;;;;;;4094185;28;20918;-77
2022/02/28 07:18:20;;;;;;;46.03;17.50;;;0.70;99.90;;;;;;4084020;28;20510;-76
2022/02/28 07:20:23;;;;;;;46.00;16.10;;;0.70;99.90;;;;;;4086328;28;20514;-76
2022/02/28 07:22:24;;;;;;;48.47;17.20;;;0.70;99.90;;;;;;4088279;28;20465;-76
2022/02/28 07:24:27;;;;;;;48.00;18.10;;;0.70;99.90;;;;;;4092604;28;20463;-76
2022/02/28 07:26:30;;;;;;;48.67;17.10;;;0.70;99.90;;;;;;4088732;28;20869;-76
2022/02/28 07:28:34;;;;;;;50.70;17.60;;;0.70;99.90;;;;;;4084142;28;20559;-76
2022/02/28 07:30:37;;;;;;;45.10;16.00;;;0.90;99.90;;;;;;4085394;28;20858;-77
2022/02/28 07:32:39;;;;;;;48.57;18.33;;;0.80;99.90;;;;;;4089600;28;20464;-76
2022/02/28 07:34:41;;;;;;;49.30;18.00;;;0.80;99.90;;;;;;4101402;28;20463;-74
2022/02/28 07:36:43;;;;;;;42.57;16.50;;;0.80;99.90;;;;;;4104324;28;20465;-76
2022/02/28 07:38:45;;;;;;;43.87;16.60;;;0.70;99.90;;;;;;4103375;28;20504;-75
2022/02/28 07:40:47;;;;;;;44.03;16.60;;;0.80;99.90;;;;;;4097748;28;21046;-77
2022/02/28 07:42:49;;;;;;;47.63;16.87;;;0.80;99.90;;;;;;4094782;28;20893;-77
2022/02/28 07:44:52;;;;;;;44.73;16.00;;;0.80;99.90;;;;;;4094679;28;20484;-76
2022/02/28 07:46:55;;;;;;;44.27;15.63;;;0.80;99.90;;;;;;4092446;28;20480;-76
2022/02/28 07:48:57;;;;;;;42.40;15.67;;;0.80;99.90;;;;;;4092880;28;21301;-76
2022/02/28 07:50:59;;;;;;;45.27;16.80;;;0.80;99.90;;;;;;4098339;28;20876;-77
2022/02/28 07:53:01;;;;;;;41.33;16.73;;;0.80;99.90;;;;;;4098772;28;21047;-76
2022/02/28 07:55:04;;;;;;;44.10;16.23;;;0.80;99.90;;;;;;4096515;28;20494;-77
2022/02/28 07:57:06;;;;;;;44.77;16.20;;;0.80;99.90;;;;;;4095316;28;20484;-76
2022/02/28 07:59:08;;;;;;;44.13;16.73;;;0.80;99.90;;;;;;4094985;28;20821;-76
2022/02/28 08:01:09;;;;;;;46.90;15.97;;;0.90;99.90;;;;;;4095854;28;20468;-78
2022/02/28 08:03:12;;;;;;;45.93;16.70;;;0.90;99.90;;;;;;4092182;28;23247;-77
2022/02/28 08:05:14;;;;;;;43.43;16.50;;;0.90;99.90;;;;;;4092869;28;20580;-76
2022/02/28 08:07:16;;;;;;;41.53;15.43;;;0.90;99.90;;;;;;4097582;28;20502;-76
2022/02/28 08:09:19;;;;;;;40.27;15.33;;;0.90;99.90;;;;;;4092305;28;20488;-76
2022/02/28 08:11:21;;;;;;;42.77;16.00;;;0.90;99.90;;;;;;4098427;28;20590;-76
2022/02/28 08:13:22;;;;;;;41.13;14.70;;;1.00;99.90;;;;;;4095919;28;20475;-76
2022/02/28 08:15:24;;;;;;;38.33;14.97;;;1.00;99.90;;;;;;4091426;28;21210;-77
2022/02/28 08:17:26;;;;;;;38.40;15.27;;;1.00;99.90;;;;;;4096372;28;21284;-77
2022/02/28 08:19:29;;;;;;;39.50;15.10;;;1.00;99.90;;;;;;4091871;28;20982;-76
2022/02/28 08:21:31;;;;;;;39.17;14.30;;;1.00;99.90;;;;;;4095401;28;20512;-76
2022/02/28 08:23:33;;;;;;;32.97;14.43;;;1.10;99.90;;;;;;4094449;28;20473;-78
2022/02/28 08:25:34;;;;;;;35.50;14.37;;;1.10;99.90;;;;;;4092715;28;20875;-76
2022/02/28 08:27:36;;;;;;;35.73;12.97;;;1.10;99.90;;;;;;4093722;28;20535;-76
2022/02/28 08:29:38;;;;;;;33.40;13.13;;;1.20;99.90;;;;;;4092316;28;20872;-76
2022/02/28 08:31:40;;;;;;;33.67;13.10;;;1.30;99.90;;;;;;4093047;28;21019;-77
2022/02/28 08:33:42;;;;;;;37.77;14.33;;;1.20;99.90;;;;;;4095847;28;20468;-77
2022/02/28 08:35:45;;;;;;;31.13;12.53;;;1.20;99.90;;;;;;4091700;28;20484;-76
2022/02/28 08:37:47;;;;;;;32.57;12.77;;;1.20;99.90;;;;;;4094310;28;20528;-77
2022/02/28 08:39:52;;;;;;;33.53;12.93;;;1.30;99.90;;;;;;4093758;28;20469;-77
2022/02/28 08:41:54;;;;;;;32.37;13.67;;;1.30;99.90;;;;;;4092877;28;20468;-77
2022/02/28 08:43:56;;;;;;;35.57;14.13;;;1.60;99.90;;;;;;4090638;28;20872;-76
2022/02/28 08:45:58;;;;;;;37.43;13.63;;;1.30;99.90;;;;;;4090953;28;20497;-77
2022/02/28 08:47:59;;;;;;;34.83;14.67;;;1.40;99.90;;;;;;4092222;28;20978;-77
2022/02/28 08:50:01;;;;;;;33.23;13.83;;;1.40;99.90;;;;;;4089529;28;20471;-77
2022/02/28 08:52:08;;;;;;;31.50;13.10;;;1.40;99.90;;;;;;4088963;28;20500;-77
2022/02/28 08:54:10;;;;;;;37.53;13.93;;;1.60;99.90;;;;;;4092468;28;20500;-76
2022/02/28 08:56:11;;;;;;;33.10;14.27;;;1.50;99.90;;;;;;4091606;28;20532;-79
2022/02/28 08:58:13;;;;;;;33.53;14.73;;;1.50;99.90;;;;;;4090821;28;20878;-76
2022/02/28 09:00:16;;;;;;;30.43;13.37;;;1.60;99.90;;;;;;4093701;28;20469;-78
2022/02/28 09:02:19;;;;;;;37.00;15.03;;;1.60;99.90;;;;;;4088526;28;20467;-77
2022/02/28 09:04:21;;;;;;;32.63;13.80;;;1.60;99.90;;;;;;4089358;28;20492;-77
2022/02/28 09:06:23;;;;;;;33.40;13.83;;;1.70;99.90;;;;;;4090692;28;20508;-76
2022/02/28 09:08:26;;;;;;;32.87;13.43;;;1.70;99.90;;;;;;4093137;28;20456;-75
2022/02/28 09:10:28;;;;;;;28.50;12.60;;;1.80;99.90;;;;;;4091115;28;20533;-77
2022/02/28 09:12:30;;;;;;;33.23;13.63;;;1.80;99.90;;;;;;4086601;28;20985;-76
2022/02/28 09:14:32;;;;;;;33.50;13.93;;;1.80;99.90;;;;;;4087661;28;20480;-78
2022/02/28 09:16:34;;;;;;;30.70;13.57;;;1.90;99.90;;;;;;4088628;28;20505;-78
2022/02/28 09:18:35;;;;;;;34.07;13.83;;;1.90;99.90;;;;;;4086269;28;20473;-76
2022/02/28 09:20:37;;;;;;;32.87;13.30;;;1.90;99.90;;;;;;4078517;28;20521;-76
2022/02/28 09:22:40;;;;;;;29.10;13.53;;;1.90;99.90;;;;;;4071174;29;20501;-76
2022/02/28 09:24:44;;;;;;;33.53;13.70;;;2.00;99.90;;;;;;4071783;28;20497;-76
2022/02/28 09:26:45;;;;;;;31.00;13.20;;;2.00;99.90;;;;;;4085315;28;20465;-76
2022/02/28 09:28:47;;;;;;;32.53;13.67;;;2.20;99.90;;;;;;4083842;28;20896;-76
2022/02/28 09:30:49;;;;;;;31.73;13.47;;;2.10;99.90;;;;;;4085855;28;20532;-76
2022/02/28 09:32:51;;;;;;;31.97;13.50;;;2.10;99.90;;;;;;4084731;28;20503;-76
2022/02/28 09:34:53;;;;;;;30.83;12.67;;;2.20;99.90;;;;;;4083709;28;20500;-76
2022/02/28 09:36:59;;;;;;;33.53;14.73;;;2.40;99.90;;;;;;4086789;28;20563;-75
2022/02/28 09:39:01;;;;;;;33.23;14.43;;;2.20;99.90;;;;;;4086835;28;20468;-75
2022/02/28 09:41:04;;;;;;;32.70;13.27;;;2.30;99.90;;;;;;4094857;28;20477;-75
2022/02/28 09:43:06;;;;;;;36.87;14.23;;;2.30;99.90;;;;;;4083116;28;21440;-76
2022/02/28 09:45:09;;;;;;;36.23;14.37;;;2.30;99.90;;;;;;4081514;28;20501;-75
2022/02/28 09:47:12;;;;;;;35.40;14.57;;;2.40;99.90;;;;;;4076762;28;20544;-77
2022/02/28 09:49:14;;;;;;;33.13;13.43;;;2.40;99.90;;;;;;4082355;28;20532;-76
2022/02/28 09:51:16;;;;;;;30.40;13.53;;;2.70;99.90;;;;;;4085124;28;20861;-77
2022/02/28 09:53:18;;;;;;;30.13;13.33;;;2.40;99.90;;;;;;4082830;28;20481;-78
2022/02/28 09:55:20;;;;;;;27.73;12.40;;;2.50;99.90;;;;;;4085024;28;20488;-77
2022/02/28 09:57:23;;;;;;;28.57;12.47;;;2.50;99.90;;;;;;4085378;28;20477;-79
2022/02/28 09:59:25;;;;;;;31.03;13.33;;;2.60;99.90;;;;;;4085928;28;20488;-76
2022/02/28 10:01:27;;;;;;;37.83;13.63;;;2.60;99.90;;;;;;4087960;28;20521;-78
2022/02/28 10:03:30;;;;;;;31.37;12.87;;;2.70;99.90;;;;;;4084830;28;20477;-79
2022/02/28 10:05:31;;;;;;;26.93;12.60;;;2.70;99.90;;;;;;4086007;28;20766;-79
2022/02/28 10:07:33;;;;;;;32.83;13.53;;;2.80;99.90;;;;;;4085302;28;21061;-78
2022/02/28 10:09:35;;;;;;;32.03;12.73;;;2.90;99.90;;;;;;4087050;28;20476;-78
2022/02/28 10:11:39;;;;;;;25.30;11.93;;;2.90;99.90;;;;;;4087197;28;20516;-77
2022/02/28 10:13:42;;;;;;;32.00;13.07;;;3.00;99.90;;;;;;4081701;28;20480;-79
2022/02/28 10:15:49;;;;;;;26.20;12.00;;;3.10;99.90;;;;;;4079800;28;20501;-78
2022/02/28 10:17:54;;;;;;;28.70;13.10;;;3.20;99.90;;;;;;4085598;28;20751;-77
2022/02/28 10:20:00;;;;;;;26.83;12.17;;;3.30;99.90;;;;;;4086789;28;20859;-78
2022/02/28 10:22:03;;;;;;;28.93;12.10;;;3.40;99.90;;;;;;4087728;28;20480;-79
2022/02/28 10:24:07;;;;;;;28.60;12.40;;;3.40;99.90;;;;;;4090507;28;20478;-78
2022/02/28 10:26:09;;;;;;;26.97;12.80;;;3.40;99.90;;;;;;4137204;23;20498;-83